Time;durP1;ratioP1;P1;durP2;ratioP2;P2;SDS_P1;SDS_P2;PMS_P1;PMS_P2;Temp;Humidity;BMP_temperature;BMP_pressure;BME280_temperature;BME280_humidity;BME280_pressure;Samples;Min_cycle;Max_cycle;Signal;HPM_P1;HPM_P2
2023/01/16 00:01:14;;;;;;;5.47;2.33;;;;;;;;;;4942639;28;93293;-69
2023/01/16 00:03:41;;;;;;;8.15;2.40;;;;;;;;;;4930596;28;92577;-70
2023/01/16 00:06:07;;;;;;;5.32;1.92;;;;;;;;;;4931031;28;93506;-70
2023/01/16 00:08:34;;;;;;;7.03;2.53;;;;;;;;;;4942490;28;93376;-69
2023/01/16 00:11:00;;;;;;;2.72;1.92;;;;;;;;;;4938076;28;91707;-71
2023/01/16 00:13:27;;;;;;;3.38;2.03;;;;;;;;;;4932223;28;92697;-70
2023/01/16 00:15:53;;;;;;;3.45;2.38;;;;;;;;;;4924948;28;93381;-70
2023/01/16 00:18:19;;;;;;;6.60;2.75;;;;;;;;;;4934125;28;94855;-69
2023/01/16 00:20:46;;;;;;;8.35;2.83;;;;;;;;;;4931608;28;95629;-66
2023/01/16 00:23:12;;;;;;;13.20;2.83;;;;;;;;;;4936171;28;93555;-69
2023/01/16 00:25:41;;;;;;;6.80;2.78;;;;;;;;;;4935256;28;93182;-69
2023/01/16 00:28:08;;;;;;;5.78;3.08;;;;;;;;;;4935864;28;93784;-69
2023/01/16 00:30:34;;;;;;;9.02;2.78;;;;;;;;;;4935795;28;92512;-70
2023/01/16 00:33:01;;;;;;;7.18;3.40;;;;;;;;;;4934379;28;94155;-69
2023/01/16 00:35:27;;;;;;;5.35;2.50;;;;;;;;;;4934558;28;92670;-69
2023/01/16 00:37:53;;;;;;;6.45;3.13;;;;;;;;;;4935315;28;92672;-69
2023/01/16 00:40:20;;;;;;;8.25;3.50;;;;;;;;;;4936473;28;93164;-69
2023/01/16 00:42:46;;;;;;;5.82;3.10;;;;;;;;;;4934740;28;97332;-68
2023/01/16 00:45:12;;;;;;;4.45;3.05;;;;;;;;;;4939093;28;92480;-69
2023/01/16 00:47:39;;;;;;;5.50;3.28;;;;;;;;;;4935532;28;93492;-69
2023/01/16 00:50:05;;;;;;;7.03;3.78;;;;;;;;;;4935087;28;92447;-69
2023/01/16 00:52:32;;;;;;;7.22;3.78;;;;;;;;;;4935378;28;93430;-66
2023/01/16 00:54:58;;;;;;;6.18;3.92;;;;;;;;;;4934116;28;92600;-69
2023/01/16 00:57:24;;;;;;;8.95;4.35;;;;;;;;;;4936519;28;92663;-69
2023/01/16 00:59:51;;;;;;;7.38;5.22;;;;;;;;;;4935598;28;93164;-69
2023/01/16 01:02:17;;;;;;;10.85;4.95;;;;;;;;;;4935034;28;93827;-69
2023/01/16 01:04:44;;;;;;;12.57;5.10;;;;;;;;;;4896889;28;1140741;-68
2023/01/16 01:07:10;;;;;;;13.52;6.80;;;;;;;;;;4938263;28;94853;-69
2023/01/16 01:09:36;;;;;;;9.35;5.60;;;;;;;;;;4937292;28;92507;-69
2023/01/16 01:12:03;;;;;;;7.97;5.82;;;;;;;;;;4936570;28;94293;-69
2023/01/16 01:14:29;;;;;;;10.90;5.85;;;;;;;;;;4936992;28;95549;-69
2023/01/16 01:16:55;;;;;;;9.65;6.32;;;;;;;;;;4935438;28;92456;-69
2023/01/16 01:19:22;;;;;;;14.25;6.10;;;;;;;;;;4934205;28;93605;-69
2023/01/16 01:21:48;;;;;;;10.77;6.32;;;;;;;;;;4935697;28;93500;-69
2023/01/16 01:24:15;;;;;;;12.48;6.60;;;;;;;;;;4937095;28;92163;-69
2023/01/16 01:26:41;;;;;;;19.00;6.53;;;;;;;;;;4939388;28;92435;-69
2023/01/16 01:29:07;;;;;;;14.57;7.70;;;;;;;;;;4936188;28;92732;-69
2023/01/16 01:31:34;;;;;;;21.52;8.85;;;;;;;;;;4934154;28;94943;-69
2023/01/16 01:34:00;;;;;;;22.65;9.07;;;;;;;;;;4935173;28;94633;-69
2023/01/16 01:36:26;;;;;;;19.17;8.63;;;;;;;;;;4935518;28;92457;-69
2023/01/16 01:38:53;;;;;;;17.95;8.88;;;;;;;;;;4935068;28;92473;-69
2023/01/16 01:41:19;;;;;;;22.65;8.77;;;;;;;;;;4935624;28;94755;-69
2023/01/16 01:43:46;;;;;;;12.90;8.07;;;;;;;;;;4939251;28;92474;-69
2023/01/16 01:46:22;;;;;;;13.07;8.48;;;;;;;;;;4935301;28;93156;-69
2023/01/16 01:48:49;;;;;;;15.20;7.57;;;;;;;;;;4938243;28;92868;-69
2023/01/16 01:51:19;;;;;;;15.57;7.75;;;;;;;;;;4935304;28;93290;-69
2023/01/16 01:53:54;;;;;;;16.88;8.38;;;;;;;;;;4935833;28;93509;-69
2023/01/16 01:56:20;;;;;;;11.70;6.78;;;;;;;;;;4936983;28;94974;-69
2023/01/16 01:58:49;;;;;;;16.73;7.28;;;;;;;;;;4935587;28;95833;-69
2023/01/16 02:01:15;;;;;;;12.13;6.25;;;;;;;;;;4935808;28;93241;-69
2023/01/16 02:03:48;;;;;;;12.98;6.93;;;;;;;;;;4933831;28;92464;-69
2023/01/16 02:06:18;;;;;;;12.02;7.55;;;;;;;;;;4944047;28;93210;-69
2023/01/16 02:08:45;;;;;;;15.52;7.72;;;;;;;;;;4942035;28;93515;-69
2023/01/16 02:11:26;;;;;;;14.68;7.90;;;;;;;;;;4939167;28;92518;-69
2023/01/16 02:13:56;;;;;;;13.65;6.95;;;;;;;;;;4934332;28;92918;-69
2023/01/16 02:19:16;;;;;;;15.00;6.38;;;;;;;;;;4935892;28;96129;-69
2023/01/16 02:22:07;;;;;;;13.02;5.55;;;;;;;;;;4932429;28;95856;-69
2023/01/16 02:24:40;;;;;;;11.27;5.47;;;;;;;;;;4933151;28;92471;-69
2023/01/16 02:27:20;;;;;;;8.93;5.10;;;;;;;;;;4935156;28;92750;-69
2023/01/16 02:29:46;;;;;;;10.13;4.47;;;;;;;;;;4933588;28;93327;-69
2023/01/16 02:32:22;;;;;;;6.55;4.40;;;;;;;;;;4936158;28;92504;-69
2023/01/16 02:34:57;;;;;;;15.48;4.30;;;;;;;;;;4937059;28;93158;-69
2023/01/16 02:37:45;;;;;;;8.43;3.15;;;;;;;;;;4934646;28;94004;-70
2023/01/16 02:40:29;;;;;;;13.63;3.45;;;;;;;;;;4932341;28;93063;-70
2023/01/16 02:42:55;;;;;;;9.05;3.55;;;;;;;;;;4929740;28;93304;-69
2023/01/16 02:45:25;;;;;;;9.45;3.22;;;;;;;;;;4935371;28;93655;-69
2023/01/16 02:47:51;;;;;;;7.25;2.97;;;;;;;;;;4934414;28;94833;-68
2023/01/16 02:50:29;;;;;;;8.52;2.88;;;;;;;;;;4933879;28;93426;-69
2023/01/16 02:53:02;;;;;;;4.85;2.63;;;;;;;;;;4932679;28;92511;-69
2023/01/16 02:55:28;;;;;;;9.68;3.08;;;;;;;;;;4934755;28;93103;-69
2023/01/16 02:57:57;;;;;;;9.52;3.13;;;;;;;;;;4938582;28;93409;-68
2023/01/16 03:00:24;;;;;;;15.88;4.28;;;;;;;;;;4932934;28;93289;-68
2023/01/16 03:02:50;;;;;;;6.15;2.80;;;;;;;;;;4934600;28;92740;-69
2023/01/16 03:05:16;;;;;;;9.05;2.75;;;;;;;;;;4930752;28;91720;-69
2023/01/16 03:07:49;;;;;;;12.70;3.35;;;;;;;;;;4934501;28;92793;-69
2023/01/16 03:10:21;;;;;;;5.22;2.70;;;;;;;;;;4941328;28;93414;-69
2023/01/16 03:12:53;;;;;;;5.35;2.60;;;;;;;;;;4935763;28;94951;-69
2023/01/16 03:15:34;;;;;;;5.72;2.30;;;;;;;;;;4933241;28;95331;-69
2023/01/16 03:18:20;;;;;;;6.88;2.40;;;;;;;;;;4932531;28;93452;-68
2023/01/16 03:21:04;;;;;;;6.90;2.42;;;;;;;;;;4937593;28;92450;-69
2023/01/16 03:23:36;;;;;;;10.40;2.88;;;;;;;;;;4933878;28;93459;-69
2023/01/16 03:26:06;;;;;;;6.00;2.25;;;;;;;;;;4918837;28;92567;-68
2023/01/16 03:28:46;;;;;;;4.68;1.80;;;;;;;;;;4934111;28;92652;-68
2023/01/16 03:31:25;;;;;;;10.05;2.33;;;;;;;;;;4933474;28;92779;-68
2023/01/16 03:34:02;;;;;;;12.38;2.35;;;;;;;;;;4935065;28;92441;-68
2023/01/16 03:36:34;;;;;;;6.50;2.05;;;;;;;;;;4934211;28;93269;-69
2023/01/16 03:39:03;;;;;;;10.77;1.98;;;;;;;;;;4930346;28;96347;-69
2023/01/16 03:41:30;;;;;;;8.75;2.08;;;;;;;;;;4937675;28;92435;-70
2023/01/16 03:43:59;;;;;;;14.05;2.00;;;;;;;;;;4934366;28;93316;-68
2023/01/16 03:46:28;;;;;;;8.50;2.13;;;;;;;;;;4934184;28;92449;-68
2023/01/16 03:49:09;;;;;;;9.70;1.92;;;;;;;;;;4935094;28;93395;-68
2023/01/16 03:51:38;;;;;;;8.40;1.67;;;;;;;;;;4933261;28;93427;-68
2023/01/16 03:54:13;;;;;;;5.75;1.58;;;;;;;;;;4933552;28;92531;-69
2023/01/16 03:56:48;;;;;;;7.80;1.90;;;;;;;;;;4932557;28;93202;-68
2023/01/16 03:59:15;;;;;;;5.57;1.80;;;;;;;;;;4933751;28;93431;-68
2023/01/16 04:01:48;;;;;;;8.70;2.13;;;;;;;;;;4933987;28;92465;-68
2023/01/16 04:04:17;;;;;;;15.38;2.08;;;;;;;;;;4949002;28;94808;-68
2023/01/16 04:06:56;;;;;;;14.77;2.30;;;;;;;;;;4935435;28;93977;-69
2023/01/16 04:09:32;;;;;;;9.70;1.77;;;;;;;;;;4933922;28;93579;-69
2023/01/16 04:11:58;;;;;;;6.78;1.70;;;;;;;;;;4933617;28;93709;-69
2023/01/16 04:14:25;;;;;;;11.98;2.13;;;;;;;;;;4934518;28;93888;-69
2023/01/16 04:16:52;;;;;;;10.38;2.05;;;;;;;;;;4934953;28;94327;-69
2023/01/16 04:19:19;;;;;;;8.68;2.10;;;;;;;;;;4934062;28;93825;-68
2023/01/16 04:21:46;;;;;;;11.85;1.90;;;;;;;;;;4937055;28;91862;-69
2023/01/16 04:24:14;;;;;;;6.78;1.83;;;;;;;;;;4936878;28;92823;-69
2023/01/16 04:26:40;;;;;;;14.25;2.00;;;;;;;;;;4939467;28;93903;-69
2023/01/16 04:29:07;;;;;;;6.93;1.80;;;;;;;;;;4936851;28;94791;-68
2023/01/16 04:31:33;;;;;;;8.30;1.88;;;;;;;;;;4936560;28;93534;-68
2023/01/16 04:34:00;;;;;;;12.60;2.05;;;;;;;;;;4936259;28;93577;-69
2023/01/16 04:36:26;;;;;;;6.38;2.03;;;;;;;;;;4937265;28;93189;-68
2023/01/16 04:38:52;;;;;;;7.05;1.75;;;;;;;;;;4935721;28;93438;-68
2023/01/16 04:41:37;;;;;;;9.52;1.67;;;;;;;;;;4936445;28;92523;-69
2023/01/16 04:44:04;;;;;;;12.77;1.85;;;;;;;;;;4937058;28;93321;-68
2023/01/16 04:46:31;;;;;;;6.18;1.63;;;;;;;;;;4936327;28;93724;-69
2023/01/16 04:48:57;;;;;;;9.60;1.85;;;;;;;;;;4940041;28;92546;-69
2023/01/16 04:51:24;;;;;;;8.25;1.60;;;;;;;;;;4935213;28;93380;-69
2023/01/16 04:53:50;;;;;;;6.70;1.75;;;;;;;;;;4935491;28;94869;-69
2023/01/16 04:56:17;;;;;;;6.78;2.00;;;;;;;;;;4935834;28;95641;-69
2023/01/16 04:58:43;;;;;;;6.13;1.95;;;;;;;;;;4936344;28;93380;-69
2023/01/16 05:01:09;;;;;;;9.13;2.08;;;;;;;;;;4936567;28;92550;-68
2023/01/16 05:03:36;;;;;;;12.93;1.88;;;;;;;;;;4945139;28;93444;-69
2023/01/16 05:06:02;;;;;;;7.30;1.80;;;;;;;;;;4954582;28;93787;-69
2023/01/16 05:08:30;;;;;;;14.40;2.47;;;;;;;;;;4936223;28;92627;-68
2023/01/16 05:10:59;;;;;;;6.47;2.03;;;;;;;;;;4937022;28;93192;-68
2023/01/16 05:13:25;;;;;;;8.95;1.98;;;;;;;;;;4935690;28;92800;-69
2023/01/16 05:15:51;;;;;;;12.90;2.00;;;;;;;;;;4934963;28;93201;-68
2023/01/16 05:18:18;;;;;;;8.45;1.85;;;;;;;;;;4934450;28;96050;-69
2023/01/16 05:20:44;;;;;;;6.40;1.95;;;;;;;;;;4934808;28;92669;-69
2023/01/16 05:23:10;;;;;;;9.13;2.97;;;;;;;;;;4935708;28;93152;-69
2023/01/16 05:25:37;;;;;;;6.82;2.25;;;;;;;;;;4933404;28;93723;-69
2023/01/16 05:28:03;;;;;;;12.10;1.90;;;;;;;;;;4937401;28;92767;-69
2023/01/16 05:30:30;;;;;;;6.82;1.75;;;;;;;;;;4939630;28;93410;-68
2023/01/16 05:32:56;;;;;;;10.65;2.10;;;;;;;;;;4944037;28;92428;-68
2023/01/16 05:35:23;;;;;;;7.25;1.92;;;;;;;;;;4938950;28;93399;-68
2023/01/16 05:37:49;;;;;;;7.20;1.95;;;;;;;;;;4952638;28;93415;-68
2023/01/16 05:40:15;;;;;;;10.02;2.03;;;;;;;;;;4954572;28;92591;-68
2023/01/16 05:42:42;;;;;;;10.50;1.80;;;;;;;;;;4939653;28;94817;-69
2023/01/16 05:45:09;;;;;;;7.35;2.22;;;;;;;;;;4937840;28;93693;-68
2023/01/16 05:47:35;;;;;;;10.63;1.75;;;;;;;;;;4948047;28;94304;-69
2023/01/16 05:50:02;;;;;;;13.35;1.90;;;;;;;;;;4938556;28;93255;-69
2023/01/16 05:52:28;;;;;;;16.88;2.55;;;;;;;;;;4939669;28;96136;-69
2023/01/16 05:54:55;;;;;;;8.20;1.80;;;;;;;;;;4939121;28;93187;-69
2023/01/16 05:57:22;;;;;;;13.77;2.15;;;;;;;;;;4941563;28;94807;-69
2023/01/16 05:59:49;;;;;;;11.63;2.13;;;;;;;;;;4948653;28;92018;-69
2023/01/16 06:02:16;;;;;;;17.80;1.92;;;;;;;;;;4937927;28;92574;-69
2023/01/16 06:04:42;;;;;;;7.63;1.80;;;;;;;;;;4938674;28;93895;-69
2023/01/16 06:07:08;;;;;;;13.05;2.30;;;;;;;;;;4933977;28;94848;-69
2023/01/16 06:09:35;;;;;;;8.02;1.92;;;;;;;;;;4933164;28;95987;-69
2023/01/16 06:12:01;;;;;;;12.43;2.30;;;;;;;;;;4946589;28;96366;-69
2023/01/16 06:14:27;;;;;;;8.50;2.10;;;;;;;;;;4943388;28;93018;-69
2023/01/16 06:16:54;;;;;;;8.60;2.03;;;;;;;;;;4934217;28;93474;-69
2023/01/16 06:19:20;;;;;;;7.18;2.60;;;;;;;;;;4938344;28;92825;-69
2023/01/16 06:21:46;;;;;;;8.38;2.33;;;;;;;;;;4936068;28;93142;-69
2023/01/16 06:24:13;;;;;;;9.32;2.70;;;;;;;;;;4938863;28;94080;-70
2023/01/16 06:26:39;;;;;;;10.60;2.10;;;;;;;;;;4934679;28;92629;-69
2023/01/16 06:29:05;;;;;;;8.10;1.95;;;;;;;;;;4940361;28;93177;-69
2023/01/16 06:31:32;;;;;;;15.10;2.00;;;;;;;;;;4934160;28;98974;-69
2023/01/16 06:33:58;;;;;;;10.40;3.35;;;;;;;;;;4947909;28;93847;-69
2023/01/16 06:36:24;;;;;;;11.05;2.30;;;;;;;;;;4955712;28;93364;-69
2023/01/16 06:38:50;;;;;;;8.50;1.80;;;;;;;;;;4941164;28;92476;-68
2023/01/16 06:41:17;;;;;;;7.22;2.22;;;;;;;;;;4943811;28;93546;-69
2023/01/16 06:43:43;;;;;;;16.95;3.67;;;;;;;;;;4947065;28;93821;-68
2023/01/16 06:46:09;;;;;;;7.05;2.25;;;;;;;;;;4943760;28;92563;-69
2023/01/16 06:48:36;;;;;;;12.23;2.38;;;;;;;;;;4945915;28;93458;-69
2023/01/16 06:51:02;;;;;;;8.15;2.10;;;;;;;;;;4938961;28;94725;-69
2023/01/16 06:53:28;;;;;;;14.30;3.03;;;;;;;;;;4934995;28;92813;-69
2023/01/16 06:55:55;;;;;;;10.13;2.92;;;;;;;;;;4944202;28;94957;-69
2023/01/16 06:58:21;;;;;;;12.68;2.42;;;;;;;;;;4937546;28;93632;-69
2023/01/16 07:00:51;;;;;;;9.82;2.17;;;;;;;;;;4935410;28;93302;-69
2023/01/16 07:03:17;;;;;;;13.13;2.80;;;;;;;;;;4938614;28;93833;-69
2023/01/16 07:05:45;;;;;;;8.52;2.33;;;;;;;;;;4941556;28;92492;-69
2023/01/16 07:08:11;;;;;;;11.75;2.17;;;;;;;;;;4936038;28;93497;-69
2023/01/16 07:10:38;;;;;;;9.23;2.53;;;;;;;;;;4932134;28;93680;-69
2023/01/16 07:13:04;;;;;;;4.43;1.63;;;;;;;;;;4935263;28;91883;-69
2023/01/16 07:23:48;;;;;;;6.57;1.67;;;;;;;;;;4933084;28;94247;-70
2023/01/16 07:26:16;;;;;;;4.18;1.42;;;;;;;;;;4934612;28;94130;-68
2023/01/16 07:28:43;;;;;;;8.55;1.77;;;;;;;;;;4934185;28;94184;-68
2023/01/16 07:31:09;;;;;;;7.43;1.73;;;;;;;;;;4933130;28;93756;-69
2023/01/16 07:33:35;;;;;;;8.55;1.98;;;;;;;;;;4934562;28;92478;-69
2023/01/16 07:36:02;;;;;;;6.55;1.85;;;;;;;;;;4934228;28;93284;-69
2023/01/16 07:38:28;;;;;;;5.43;1.45;;;;;;;;;;4932464;28;92319;-69
2023/01/16 07:40:54;;;;;;;9.18;1.77;;;;;;;;;;4937980;28;92469;-69
2023/01/16 07:43:21;;;;;;;5.75;1.50;;;;;;;;;;4933334;28;95077;-69
2023/01/16 07:45:52;;;;;;;3.10;1.77;;;;;;;;;;4947182;28;94908;-69
2023/01/16 07:48:22;;;;;;;11.55;2.08;;;;;;;;;;4935527;28;95523;-69
2023/01/16 07:50:55;;;;;;;7.90;1.43;;;;;;;;;;4938130;28;93408;-68
2023/01/16 07:53:24;;;;;;;5.70;1.50;;;;;;;;;;4936841;28;92766;-68
2023/01/16 07:55:51;;;;;;;6.20;2.13;;;;;;;;;;4936806;28;93058;-69
2023/01/16 07:58:18;;;;;;;7.68;2.10;;;;;;;;;;4937882;28;93834;-69
2023/01/16 08:00:45;;;;;;;4.93;2.03;;;;;;;;;;4937972;28;92465;-68
2023/01/16 08:03:11;;;;;;;7.95;1.70;;;;;;;;;;4946000;28;93181;-69
2023/01/16 08:05:37;;;;;;;9.05;1.80;;;;;;;;;;4943852;28;92460;-69
2023/01/16 08:08:04;;;;;;;4.45;1.70;;;;;;;;;;4935096;28;93271;-69
2023/01/16 08:10:30;;;;;;;3.70;1.42;;;;;;;;;;4936483;28;95825;-68
2023/01/16 08:12:56;;;;;;;6.05;1.90;;;;;;;;;;4936982;28;93778;-68
2023/01/16 08:15:23;;;;;;;4.03;1.98;;;;;;;;;;4937146;28;93584;-69
2023/01/16 08:17:49;;;;;;;6.90;3.00;;;;;;;;;;4936501;28;93705;-68
2023/01/16 08:20:16;;;;;;;2.58;1.75;;;;;;;;;;4937714;28;92528;-68
2023/01/16 08:22:45;;;;;;;6.03;2.20;;;;;;;;;;4936246;28;93175;-68
2023/01/16 08:25:12;;;;;;;8.15;2.15;;;;;;;;;;4938723;28;93360;-68
2023/01/16 08:27:39;;;;;;;3.40;2.00;;;;;;;;;;4937461;28;93432;-69
2023/01/16 08:30:06;;;;;;;7.47;2.00;;;;;;;;;;4936862;28;93446;-68
2023/01/16 08:32:32;;;;;;;6.97;2.35;;;;;;;;;;4937113;28;92422;-68
2023/01/16 08:34:58;;;;;;;5.50;2.50;;;;;;;;;;4935584;28;95003;-68
2023/01/16 08:37:25;;;;;;;8.70;2.40;;;;;;;;;;4935735;28;93465;-68
2023/01/16 08:39:51;;;;;;;3.15;1.90;;;;;;;;;;4937324;28;92466;-68
2023/01/16 08:53:16;;;;;;;8.07;2.00;;;;;;;;;;4936558;28;91881;-68
2023/01/16 08:55:42;;;;;;;8.55;2.08;;;;;;;;;;4936653;28;92503;-68
2023/01/16 08:58:09;;;;;;;3.95;1.95;;;;;;;;;;4933967;28;94453;-68
2023/01/16 09:00:35;;;;;;;8.07;3.42;;;;;;;;;;4932734;28;95025;-68
2023/01/16 09:03:01;;;;;;;6.63;2.97;;;;;;;;;;4950339;28;94852;-67
2023/01/16 09:05:28;;;;;;;7.55;2.33;;;;;;;;;;4934221;28;93690;-67
2023/01/16 09:07:54;;;;;;;8.95;2.92;;;;;;;;;;4936165;28;92553;-68
2023/01/16 09:10:21;;;;;;;8.20;2.10;;;;;;;;;;4938986;28;93265;-68
2023/01/16 09:15:32;;;;;;;6.68;2.17;;;;;;;;;;4951776;28;93281;-68
2023/01/16 09:17:58;;;;;;;5.80;2.22;;;;;;;;;;4937243;28;92719;-68
2023/01/16 09:20:25;;;;;;;9.00;2.50;;;;;;;;;;4935734;28;92561;-68
2023/01/16 09:23:01;;;;;;;7.10;2.25;;;;;;;;;;4937829;28;93173;-68
2023/01/16 09:25:27;;;;;;;4.57;2.38;;;;;;;;;;4951379;28;95892;-68
2023/01/16 09:27:54;;;;;;;3.63;2.20;;;;;;;;;;4937171;28;92538;-68
2023/01/16 09:30:21;;;;;;;8.65;2.78;;;;;;;;;;4937143;28;93471;-68
2023/01/16 09:32:47;;;;;;;4.88;2.20;;;;;;;;;;4939741;28;93474;-68
2023/01/16 09:35:14;;;;;;;10.63;2.40;;;;;;;;;;4934791;28;93596;-68
2023/01/16 09:37:42;;;;;;;7.72;2.30;;;;;;;;;;4934531;28;94053;-68
2023/01/16 09:40:10;;;;;;;6.50;2.35;;;;;;;;;;4936355;28;92554;-68
2023/01/16 09:45:29;;;;;;;5.35;2.42;;;;;;;;;;4936583;28;93449;-68
2023/01/16 09:48:16;;;;;;;5.00;2.63;;;;;;;;;;4937748;28;92571;-67
2023/01/16 09:50:45;;;;;;;6.88;2.35;;;;;;;;;;4933751;28;95216;-67
2023/01/16 09:59:19;;;;;;;10.95;2.47;;;;;;;;;;4938157;28;93500;-67
2023/01/16 10:01:47;;;;;;;10.30;2.25;;;;;;;;;;4918413;28;92692;-67
2023/01/16 10:04:17;;;;;;;8.52;2.05;;;;;;;;;;4944774;28;94182;-67
2023/01/16 10:07:04;;;;;;;3.28;1.60;;;;;;;;;;4935519;28;93675;-67
2023/01/16 10:09:30;;;;;;;4.75;1.60;;;;;;;;;;4936588;28;91784;-67
2023/01/16 10:12:04;;;;;;;3.53;1.63;;;;;;;;;;4945302;28;92451;-67
2023/01/16 10:14:51;;;;;;;2.70;1.30;;;;;;;;;;4935476;28;93617;-67
2023/01/16 10:17:18;;;;;;;3.75;1.60;;;;;;;;;;4937317;28;95346;-67
2023/01/16 10:20:03;;;;;;;2.38;1.40;;;;;;;;;;4946540;28;93450;-67
2023/01/16 10:22:35;;;;;;;3.58;1.50;;;;;;;;;;4945946;28;92692;-67
2023/01/16 10:25:12;;;;;;;3.17;1.10;;;;;;;;;;4954285;28;93713;-67
2023/01/16 10:27:52;;;;;;;2.55;1.10;;;;;;;;;;4943142;28;93736;-67
2023/01/16 10:30:21;;;;;;;2.15;1.00;;;;;;;;;;4942199;28;93113;-67
2023/01/16 10:32:51;;;;;;;10.00;1.40;;;;;;;;;;4935949;28;92363;-67
2023/01/16 10:35:22;;;;;;;2.40;1.30;;;;;;;;;;4943514;28;92670;-67
2023/01/16 10:37:50;;;;;;;1.35;0.70;;;;;;;;;;4954762;28;92420;-67
2023/01/16 10:40:19;;;;;;;8.63;0.90;;;;;;;;;;4932378;28;94247;-67
2023/01/16 10:51:06;;;;;;;1.10;1.00;;;;;;;;;;4939578;28;92389;-67
2023/01/16 10:53:34;;;;;;;2.47;1.10;;;;;;;;;;4934636;28;93425;-67
2023/01/16 10:56:01;;;;;;;4.80;1.50;;;;;;;;;;4938024;28;93411;-67
2023/01/16 10:58:32;;;;;;;2.85;2.00;;;;;;;;;;4942902;28;92460;-67
2023/01/16 11:01:06;;;;;;;2.25;1.20;;;;;;;;;;4938864;28;93504;-67
2023/01/16 11:03:39;;;;;;;2.45;1.10;;;;;;;;;;4935836;28;93655;-67
2023/01/16 11:06:17;;;;;;;1.65;1.10;;;;;;;;;;4950128;28;93568;-68
2023/01/16 11:08:46;;;;;;;3.00;1.30;;;;;;;;;;4947218;28;95764;-68
2023/01/16 11:19:39;;;;;;;4.35;1.40;;;;;;;;;;4946297;28;92643;-67
2023/01/16 11:22:19;;;;;;;1.83;1.33;;;;;;;;;;4944076;28;93573;-67
2023/01/16 11:24:45;;;;;;;4.85;1.23;;;;;;;;;;4940167;28;93744;-67
2023/01/16 11:27:18;;;;;;;1.63;1.20;;;;;;;;;;4961943;28;91790;-67
2023/01/16 11:29:44;;;;;;;2.83;1.38;;;;;;;;;;4954579;28;93695;-67
2023/01/16 11:32:12;;;;;;;2.78;1.40;;;;;;;;;;4955712;28;93601;-67
2023/01/16 11:34:43;;;;;;;4.38;1.40;;;;;;;;;;4954927;28;95204;-68
2023/01/16 11:37:09;;;;;;;;;;;;;;;;;;4951313;28;94793;-67
2023/01/16 11:39:36;;;;;;;2.85;1.25;;;;;;;;;;4933183;28;118448;-67
2023/01/16 11:47:54;;;;;;;3.33;1.08;;;;;;;;;;4890528;28;92526;-67
2023/01/16 11:50:26;;;;;;;2.55;1.52;;;;;;;;;;4881996;28;92777;-67
2023/01/16 11:52:52;;;;;;;1.13;1.10;;;;;;;;;;4884320;28;92103;-68
2023/01/16 11:55:21;;;;;;;1.67;1.08;;;;;;;;;;4885319;28;92551;-67
2023/01/16 11:57:51;;;;;;;1.15;0.93;;;;;;;;;;4879626;28;93700;-67
2023/01/16 12:00:43;;;;;;;3.38;1.00;;;;;;;;;;4893392;28;95026;-67
2023/01/16 12:03:28;;;;;;;5.70;1.20;;;;;;;;;;4875354;28;95518;-68
2023/01/16 12:06:17;;;;;;;1.02;0.90;;;;;;;;;;4880280;28;93776;-67
2023/01/16 12:09:03;;;;;;;2.03;0.98;;;;;;;;;;4855010;28;92815;-68
2023/01/16 12:11:55;;;;;;;1.20;1.10;;;;;;;;;;4892507;28;94474;-67
2023/01/16 12:14:33;;;;;;;1.17;1.08;;;;;;;;;;4880946;28;93001;-67
2023/01/16 12:17:02;;;;;;;1.40;1.10;;;;;;;;;;4876340;28;93281;-67
2023/01/16 12:19:52;;;;;;;3.13;1.45;;;;;;;;;;4927563;28;92678;-67
2023/01/16 12:22:25;;;;;;;1.40;1.30;;;;;;;;;;4946882;28;92616;-67
2023/01/16 12:25:03;;;;;;;1.90;1.77;;;;;;;;;;4955878;28;93153;-67
2023/01/16 12:27:32;;;;;;;4.30;1.23;;;;;;;;;;4943078;28;95809;-67
2023/01/16 12:30:06;;;;;;;1.40;1.30;;;;;;;;;;4937705;28;92555;-67
2023/01/16 12:32:36;;;;;;;2.85;1.80;;;;;;;;;;4937139;28;93114;-67
2023/01/16 12:35:09;;;;;;;1.60;1.50;;;;;;;;;;4939949;28;93790;-67
2023/01/16 12:37:47;;;;;;;4.75;2.28;;;;;;;;;;4933224;28;93595;-67
2023/01/16 12:40:37;;;;;;;2.40;1.40;;;;;;;;;;4949424;28;93329;-67
2023/01/16 12:43:19;;;;;;;3.55;1.42;;;;;;;;;;4932989;28;92510;-67
2023/01/16 12:45:45;;;;;;;1.08;1.08;;;;;;;;;;4938534;28;94205;-67
2023/01/16 12:48:19;;;;;;;1.60;1.50;;;;;;;;;;4941088;28;93792;-67
2023/01/16 12:51:00;;;;;;;2.00;1.10;;;;;;;;;;4948269;28;92714;-67
2023/01/16 12:53:45;;;;;;;1.40;1.27;;;;;;;;;;4951196;28;94915;-67
2023/01/16 12:56:14;;;;;;;4.25;1.50;;;;;;;;;;4946683;28;94150;-67
2023/01/16 12:58:43;;;;;;;2.15;1.13;;;;;;;;;;4949674;28;93664;-67
2023/01/16 13:01:17;;;;;;;1.98;1.40;;;;;;;;;;4948655;28;93930;-67
2023/01/16 13:03:58;;;;;;;3.95;1.42;;;;;;;;;;4942258;28;92784;-67
2023/01/16 13:06:32;;;;;;;1.55;1.23;;;;;;;;;;4934300;28;93218;-67
2023/01/16 13:09:03;;;;;;;2.38;1.45;;;;;;;;;;4946789;28;95483;-67
2023/01/16 13:14:32;;;;;;;2.22;1.30;;;;;;;;;;4952505;28;92715;-67
2023/01/16 13:17:04;;;;;;;1.67;1.10;;;;;;;;;;4950826;28;93724;-67
2023/01/16 13:19:33;;;;;;;1.23;1.13;;;;;;;;;;4956026;28;94802;-67
2023/01/16 13:22:09;;;;;;;2.40;1.30;;;;;;;;;;4960845;28;96529;-67
2023/01/16 13:24:46;;;;;;;4.32;1.10;;;;;;;;;;4947931;28;92494;-67
2023/01/16 13:27:18;;;;;;;4.00;1.48;;;;;;;;;;4946090;28;92606;-67
2023/01/16 13:29:53;;;;;;;2.55;1.25;;;;;;;;;;4956199;28;93673;-67
2023/01/16 13:32:25;;;;;;;1.73;1.20;;;;;;;;;;4948671;28;92799;-67
2023/01/16 13:34:56;;;;;;;2.80;1.35;;;;;;;;;;4949654;28;93118;-67
2023/01/16 13:37:52;;;;;;;1.35;1.20;;;;;;;;;;4955889;28;92761;-67
2023/01/16 13:40:39;;;;;;;1.00;0.95;;;;;;;;;;4858387;28;92749;-67
2023/01/16 13:45:54;;;;;;;1.27;1.20;;;;;;;;;;4862085;28;96667;-67
2023/01/16 13:48:28;;;;;;;4.45;1.50;;;;;;;;;;4856630;28;95839;-67
2023/01/16 13:50:58;;;;;;;5.93;1.67;;;;;;;;;;4870903;28;92485;-67
2023/01/16 13:53:26;;;;;;;1.73;1.63;;;;;;;;;;4856369;28;96145;-66
2023/01/16 13:56:02;;;;;;;2.92;1.83;;;;;;;;;;4868752;28;93740;-66
2023/01/16 13:58:28;;;;;;;3.13;1.48;;;;;;;;;;4872574;28;94519;-66
2023/01/16 14:00:56;;;;;;;2.13;1.77;;;;;;;;;;4859514;28;92568;-67
2023/01/16 14:03:27;;;;;;;7.15;2.38;;;;;;;;;;4876316;28;93530;-67
2023/01/16 14:06:13;;;;;;;2.65;1.67;;;;;;;;;;4877690;28;93544;-67
2023/01/16 14:09:04;;;;;;;1.52;1.33;;;;;;;;;;4846495;28;93371;-67
2023/01/16 14:11:36;;;;;;;1.58;1.30;;;;;;;;;;4866140;28;97067;-68
2023/01/16 14:14:17;;;;;;;10.60;1.65;;;;;;;;;;4856591;29;92557;-67
2023/01/16 14:16:59;;;;;;;3.00;1.50;;;;;;;;;;4888561;28;93976;-67
2023/01/16 14:19:34;;;;;;;2.40;1.30;;;;;;;;;;4935534;28;93398;-67
2023/01/16 14:24:41;;;;;;;5.47;3.30;;;;;;;;;;4935772;28;93510;-68
2023/01/16 14:27:15;;;;;;;4.07;2.95;;;;;;;;;;4938876;28;93150;-67
2023/01/16 14:29:45;;;;;;;3.92;2.97;;;;;;;;;;4951434;28;91845;-67
2023/01/16 14:32:12;;;;;;;3.17;2.38;;;;;;;;;;4952017;28;93507;-67
2023/01/16 14:34:44;;;;;;;2.78;1.80;;;;;;;;;;4952003;28;92538;-67
2023/01/16 14:37:13;;;;;;;3.78;2.00;;;;;;;;;;4942004;28;96355;-68
2023/01/16 14:39:47;;;;;;;1.83;1.70;;;;;;;;;;4945946;28;93700;-67
2023/01/16 14:56:27;;;;;;;2.60;1.70;;;;;;;;;;4943138;28;91761;-67
2023/01/16 14:59:09;;;;;;;3.33;1.98;;;;;;;;;;4953666;28;92608;-68
2023/01/16 15:04:41;;;;;;;2.42;1.33;;;;;;;;;;4933805;28;95260;-67
2023/01/16 15:07:09;;;;;;;2.22;1.67;;;;;;;;;;4936563;28;96821;-67
2023/01/16 15:09:38;;;;;;;2.15;1.77;;;;;;;;;;4934165;28;93743;-67
2023/01/16 15:12:12;;;;;;;2.03;1.80;;;;;;;;;;4934095;28;92777;-67
2023/01/16 15:14:38;;;;;;;4.45;2.42;;;;;;;;;;4935413;28;93615;-67
2023/01/16 15:22:52;;;;;;;2.85;2.10;;;;;;;;;;4935300;28;92570;-67
2023/01/16 15:25:53;;;;;;;2.15;1.67;;;;;;;;;;4932058;28;94113;-67
2023/01/16 15:28:22;;;;;;;3.10;2.00;;;;;;;;;;4892654;28;94570;-67
2023/01/16 15:30:59;;;;;;;2.95;2.00;;;;;;;;;;4891550;28;96318;-67
2023/01/16 15:36:15;;;;;;;2.15;1.80;;;;;;;;;;4880194;28;93189;-67
2023/01/16 15:38:46;;;;;;;1.52;1.42;;;;;;;;;;4884303;28;93797;-67
2023/01/16 15:41:13;;;;;;;1.30;1.30;;;;;;;;;;4897187;28;92864;-67
2023/01/16 15:46:46;;;;;;;1.65;1.55;;;;;;;;;;4885883;28;92672;-67
2023/01/16 15:49:21;;;;;;;1.52;1.40;;;;;;;;;;4876352;28;94183;-67
2023/01/16 15:51:57;;;;;;;1.70;1.60;;;;;;;;;;4894347;28;94937;-67
2023/01/16 15:54:24;;;;;;;3.10;1.67;;;;;;;;;;4894475;28;92552;-67
2023/01/16 15:56:51;;;;;;;4.20;2.22;;;;;;;;;;4891809;28;95547;-67
2023/01/16 15:59:21;;;;;;;;;;;;;;;;;;4879336;28;93456;-67
2023/01/16 16:01:48;;;;;;;7.43;4.03;;;;;;;;;;4903299;28;117186;-67
2023/01/16 16:04:14;;;;;;;7.20;4.60;;;;;;;;;;4937029;28;93500;-67
2023/01/16 16:06:41;;;;;;;6.40;4.10;;;;;;;;;;4937444;28;92451;-68
2023/01/16 16:09:34;;;;;;;6.65;4.07;;;;;;;;;;4946563;28;94134;-67
2023/01/16 16:12:04;;;;;;;8.00;5.50;;;;;;;;;;4940834;28;94806;-67
2023/01/16 16:20:22;;;;;;;8.93;7.50;;;;;;;;;;4947661;28;96610;-68
2023/01/16 16:22:49;;;;;;;6.25;5.47;;;;;;;;;;4949925;28;95099;-68
2023/01/16 16:25:22;;;;;;;5.10;4.70;;;;;;;;;;4939639;28;95983;-67
2023/01/16 16:27:48;;;;;;;6.80;5.63;;;;;;;;;;4938896;28;93783;-67
2023/01/16 16:30:21;;;;;;;5.53;4.38;;;;;;;;;;4936957;28;92407;-68
2023/01/16 16:32:47;;;;;;;4.60;3.90;;;;;;;;;;4918555;28;93418;-68
2023/01/16 16:35:18;;;;;;;5.80;3.22;;;;;;;;;;4918160;28;92438;-68
2023/01/16 16:37:45;;;;;;;6.43;4.05;;;;;;;;;;4947594;28;93007;-68